Terminal Aerodrome Forecast
Issued by NWS

Home | Current Version | Previous Version | Text Only | Print | Product List | Glossary On
Versions: 1 2 3 4 5 6 7 8 9 10 11 12 13 14 15 16 17 18 19 20 21 22 23 24 25 26 27 28 29 30 31 32 33 34 35 36 37
000
FTUS45 KGJT 201243 AAA
TAFEGE
TAF AMD
KEGE 201243Z 2013/2112 VRB03KT P6SM VCSH SCT006 SCT045 OVC070
      TEMPO 2013/2014 -SHRA BKN006 OVC045
     FM202000 24010KT P6SM VCTS SCT070CB BKN110
     FM210200 23005KT P6SM SCT070 BKN110
     FM210500 11003KT P6SM SCT110=

USA.gov is the U.S. government's official web portal to all federal, state and local government web resources and services.